Time;durP1;ratioP1;P1;durP2;ratioP2;P2;SDS_P1;SDS_P2;PMS_P1;PMS_P2;Temp;Humidity;BMP_temperature;BMP_pressure;BME280_temperature;BME280_humidity;BME280_pressure;Samples;Min_cycle;Max_cycle;Signal;HPM_P1;HPM_P2
2022/10/17 08:01:22;;;;;;;10.32;6.88;;;;;;;16.04;100.00;101621.59;5338197;27;20408;-68
2022/10/17 08:03:53;;;;;;;7.85;6.95;;;;;;;16.05;100.00;101611.25;5307893;28;20067;-69
2022/10/17 08:06:24;;;;;;;7.05;6.45;;;;;;;16.06;100.00;101610.94;5305465;28;20062;-69
2022/10/17 08:08:56;;;;;;;8.23;6.55;;;;;;;16.08;100.00;101617.06;5320822;28;20031;-71
2022/10/17 08:11:28;;;;;;;10.50;7.18;;;;;;;16.07;100.00;101609.78;5322399;28;20035;-69
2022/10/17 08:13:59;;;;;;;7.97;7.18;;;;;;;16.07;100.00;101620.97;5322166;28;20024;-68
2022/10/17 08:16:30;;;;;;;8.10;7.22;;;;;;;16.08;100.00;101628.25;5300988;28;20348;-68
2022/10/17 08:19:02;;;;;;;8.10;6.65;;;;;;;16.11;100.00;101648.38;5300842;28;20028;-68
2022/10/17 08:21:34;;;;;;;9.95;7.85;;;;;;;16.09;100.00;101676.66;5320322;28;20024;-68
2022/10/17 08:24:05;;;;;;;9.65;7.45;;;;;;;16.08;100.00;101686.19;5316825;28;20024;-68
2022/10/17 08:26:37;;;;;;;7.75;7.00;;;;;;;16.07;100.00;101679.75;5301304;28;20039;-68
2022/10/17 08:29:15;;;;;;;9.93;7.72;;;;;;;16.08;100.00;101670.22;5300052;28;20024;-69
2022/10/17 08:31:47;;;;;;;8.00;7.20;;;;;;;16.07;100.00;101676.13;5300965;28;20024;-69
2022/10/17 08:34:18;;;;;;;9.40;7.82;;;;;;;16.08;100.00;101672.19;5300263;28;20047;-70
2022/10/17 08:36:49;;;;;;;8.55;7.00;;;;;;;16.07;100.00;101676.94;5300713;28;20020;-68
2022/10/17 08:39:21;;;;;;;10.75;8.00;;;;;;;16.06;100.00;101674.47;5300224;28;20024;-68
2022/10/17 08:42:24;;;;;;;10.65;6.80;;;;;;;16.07;100.00;101682.53;5311632;28;20377;-68
2022/10/17 08:45:06;;;;;;;14.38;9.13;;;;;;;16.06;100.00;101680.88;5321648;28;20058;-68
2022/10/17 08:47:41;;;;;;;10.38;6.72;;;;;;;16.06;100.00;101671.66;5307870;28;20024;-69
2022/10/17 08:50:26;;;;;;;11.40;7.90;;;;;;;16.08;100.00;101670.22;5305443;28;20024;-69
2022/10/17 08:53:20;;;;;;;9.00;7.07;;;;;;;16.09;100.00;101660.69;5321679;28;20028;-69
2022/10/17 08:55:53;;;;;;;11.07;7.68;;;;;;;16.07;100.00;101665.75;5300959;28;20051;-69
2022/10/17 08:58:28;;;;;;;8.45;7.03;;;;;;;16.12;100.00;101661.22;5299849;28;20060;-69
2022/10/17 09:01:27;;;;;;;36.13;32.85;;;;;;;16.13;100.00;101669.31;5299782;28;20067;-69
2022/10/17 09:04:24;;;;;;;22.23;19.92;;;;;;;16.14;100.00;101675.72;5299531;28;20080;-68
2022/10/17 09:07:04;;;;;;;11.82;8.43;;;;;;;16.13;100.00;101688.03;5299779;28;20432;-69
2022/10/17 09:09:57;;;;;;;7.80;6.95;;;;;;;16.12;100.00;101700.38;5299959;28;20028;-69
2022/10/17 09:12:28;;;;;;;8.55;7.32;;;;;;;16.12;100.00;101709.59;5292930;28;20056;-69
2022/10/17 09:15:22;;;;;;;10.52;8.77;;;;;;;16.12;100.00;101729.19;5289744;28;20063;-69
2022/10/17 09:18:15;;;;;;;14.30;9.57;;;;;;;16.13;100.00;101735.63;5306029;28;20024;-69
2022/10/17 09:20:53;;;;;;;10.25;7.68;;;;;;;16.13;100.00;101756.06;5288043;28;20036;-69
2022/10/17 09:23:29;;;;;;;10.45;9.32;;;;;;;16.09;100.00;101741.00;5286269;28;20437;-69
2022/10/17 09:26:00;;;;;;;10.32;8.48;;;;;;;16.06;100.00;101725.66;5284545;28;20077;-69
2022/10/17 09:28:35;;;;;;;11.18;8.43;;;;;;;16.06;100.00;101692.09;5284900;28;20413;-69
2022/10/17 09:31:21;;;;;;;11.65;8.75;;;;;;;16.04;100.00;101644.00;5285482;28;20034;-69
2022/10/17 09:33:59;;;;;;;9.30;8.50;;;;;;;16.04;100.00;101635.59;5285478;28;20035;-69
2022/10/17 09:36:36;;;;;;;11.27;8.45;;;;;;;16.05;100.00;101642.88;5285931;28;20025;-69
2022/10/17 09:39:17;;;;;;;10.82;7.82;;;;;;;16.09;100.00;101665.47;5284395;28;20040;-69
2022/10/17 09:41:55;;;;;;;9.85;7.57;;;;;;;16.08;100.00;101687.03;5285582;28;20036;-68
2022/10/17 09:44:34;;;;;;;10.00;8.25;;;;;;;16.11;100.00;101698.75;5290789;28;20097;-69
2022/10/17 09:47:19;;;;;;;9.65;8.13;;;;;;;16.12;100.00;101700.38;5284452;28;20035;-68
2022/10/17 09:49:51;;;;;;;8.82;7.93;;;;;;;16.12;100.00;101703.19;5285896;28;20025;-69
2022/10/17 09:52:47;;;;;;;8.85;7.85;;;;;;;16.15;100.00;101694.16;5285504;28;20036;-69
2022/10/17 09:55:26;;;;;;;9.55;8.05;;;;;;;16.14;100.00;101686.94;5285272;28;20095;-69
2022/10/17 09:58:00;;;;;;;9.45;8.55;;;;;;;16.16;100.00;101674.28;5285153;28;20111;-68
2022/10/17 10:00:51;;;;;;;9.32;8.38;;;;;;;16.18;100.00;101671.16;5283770;28;20407;-69
2022/10/17 10:03:26;;;;;;;9.20;8.30;;;;;;;16.22;100.00;101675.03;5285496;28;20040;-69
2022/10/17 10:06:16;;;;;;;9.70;8.38;;;;;;;16.21;100.00;101671.41;5286087;28;20028;-69
2022/10/17 10:08:52;;;;;;;13.35;9.35;;;;;;;16.24;100.00;101678.34;5283262;28;20119;-70
2022/10/17 10:11:45;;;;;;;11.05;8.77;;;;;;;16.24;100.00;101681.16;5285119;28;20090;-70
2022/10/17 10:14:21;;;;;;;9.55;8.23;;;;;;;16.23;100.00;101701.84;5283875;28;20036;-70
2022/10/17 10:16:53;;;;;;;9.38;8.48;;;;;;;16.24;100.00;101709.13;5284222;28;20028;-70
2022/10/17 10:19:35;;;;;;;8.63;7.43;;;;;;;16.23;100.00;101713.06;5291910;28;20133;-70
2022/10/17 10:22:18;;;;;;;9.55;8.10;;;;;;;16.25;100.00;101727.56;5283114;28;20038;-69
2022/10/17 10:25:25;;;;;;;8.00;7.20;;;;;;;16.28;100.00;101741.81;5284184;28;20028;-69
2022/10/17 10:27:56;;;;;;;;;;;;;;;16.30;100.00;101742.31;5281916;28;20024;-69
2022/10/17 10:30:30;;;;;;;7.45;6.38;;;;;;;16.23;100.00;101741.91;5284178;28;19920;-69
2022/10/17 10:33:01;;;;;;;11.20;6.75;;;;;;;16.25;100.00;101735.97;5287169;28;20463;-67
2022/10/17 10:35:35;;;;;;;8.13;6.75;;;;;;;16.29;100.00;101742.63;5299630;28;20025;-67
2022/10/17 10:38:10;;;;;;;9.48;6.93;;;;;;;16.31;100.00;101748.75;5292628;28;20478;-67
2022/10/17 10:40:48;;;;;;;6.88;6.18;;;;;;;16.30;100.00;101763.88;5303496;28;20108;-67
2022/10/17 10:43:30;;;;;;;9.45;6.32;;;;;;;16.33;100.00;101782.84;5304295;28;20028;-67
2022/10/17 10:46:15;;;;;;;7.63;5.97;;;;;;;16.32;100.00;101789.59;5283057;28;20036;-67
2022/10/17 10:48:58;;;;;;;6.75;6.10;;;;;;;16.32;100.00;101800.78;5286043;28;20028;-67
2022/10/17 10:51:42;;;;;;;6.35;5.68;;;;;;;16.29;100.00;101804.22;5302800;28;20382;-67
2022/10/17 10:54:35;;;;;;;8.43;6.40;;;;;;;16.30;100.00;101803.06;5286668;28;20510;-67
2022/10/17 10:57:18;;;;;;;6.70;6.10;;;;;;;16.33;100.00;101798.81;5291132;28;20089;-68
2022/10/17 11:00:03;;;;;;;7.28;6.65;;;;;;;16.34;100.00;101792.94;5304015;28;20071;-67
2022/10/17 11:02:45;;;;;;;7.18;6.32;;;;;;;16.35;100.00;101800.19;5304790;28;20047;-67
2022/10/17 11:05:24;;;;;;;7.53;6.15;;;;;;;16.36;100.00;101807.44;5297525;28;20120;-65
2022/10/17 11:08:04;;;;;;;7.80;6.65;;;;;;;16.34;100.00;101804.13;5297824;28;20028;-65
2022/10/17 11:11:05;;;;;;;7.60;7.00;;;;;;;16.39;100.00;101801.25;5291127;28;20489;-66
2022/10/17 11:13:44;;;;;;;6.80;6.13;;;;;;;16.40;100.00;101802.88;5302286;28;20024;-64
2022/10/17 11:16:34;;;;;;;7.53;6.82;;;;;;;16.39;100.00;101806.84;5283173;28;20028;-64
2022/10/17 11:19:17;;;;;;;7.85;6.68;;;;;;;16.41;100.00;101821.38;5284504;28;20508;-65
2022/10/17 11:21:58;;;;;;;8.02;7.22;;;;;;;16.41;100.00;101826.97;5291875;28;20031;-65
2022/10/17 11:24:47;;;;;;;7.88;7.18;;;;;;;16.42;100.00;101823.00;5288769;28;20036;-65
2022/10/17 11:27:18;;;;;;;9.68;8.70;;;;;;;16.41;100.00;101826.97;5284491;28;20044;-66
2022/10/17 11:29:50;;;;;;;8.90;8.00;;;;;;;16.45;100.00;101836.41;5296590;28;20016;-66
2022/10/17 11:32:30;;;;;;;10.05;7.72;;;;;;;16.43;100.00;101838.66;5297278;28;20073;-66
2022/10/17 11:35:23;;;;;;;7.95;7.20;;;;;;;16.46;100.00;101840.88;5296142;28;20013;-66
2022/10/17 11:38:21;;;;;;;9.10;7.40;;;;;;;16.48;100.00;101838.56;5290167;28;20455;-67
2022/10/17 11:40:57;;;;;;;8.93;7.95;;;;;;;16.45;100.00;101842.00;5290144;28;20040;-65
2022/10/17 11:43:39;;;;;;;9.95;8.48;;;;;;;16.47;100.00;101842.53;5291114;28;20043;-66
2022/10/17 11:46:17;;;;;;;8.82;7.97;;;;;;;16.47;100.00;101848.13;5285378;28;20487;-66
2022/10/17 11:49:00;;;;;;;8.57;7.70;;;;;;;16.49;100.00;101851.47;5285846;28;20737;-66
2022/10/17 11:51:41;;;;;;;9.52;8.55;;;;;;;16.50;100.00;101863.50;5293196;28;20479;-66
2022/10/17 11:54:24;;;;;;;10.52;8.25;;;;;;;16.52;100.00;101866.81;5295092;28;20020;-66
2022/10/17 11:57:14;;;;;;;10.00;8.57;;;;;;;16.51;100.00;101863.19;5303402;28;20020;-65
2022/10/17 12:00:10;;;;;;;10.40;8.13;;;;;;;16.52;100.00;101866.81;5295970;28;20060;-66
2022/10/17 12:03:11;;;;;;;10.02;9.02;;;;;;;16.57;100.00;101872.34;5290732;28;20137;-66
2022/10/17 12:05:59;;;;;;;13.57;11.85;;;;;;;16.59;100.00;101872.00;5282884;28;20114;-66
2022/10/17 12:08:30;;;;;;;12.13;10.20;;;;;;;16.60;100.00;101868.09;5295657;28;20027;-66
2022/10/17 12:11:23;;;;;;;10.95;9.95;;;;;;;16.65;100.00;101868.00;5302322;28;20047;-66
2022/10/17 12:13:55;;;;;;;10.48;9.27;;;;;;;16.62;100.00;101863.03;5299093;28;20028;-66
2022/10/17 12:16:32;;;;;;;10.77;9.60;;;;;;;16.61;100.00;101873.38;5303205;28;20457;-66
2022/10/17 12:19:09;;;;;;;11.07;9.88;;;;;;;16.61;100.00;101878.16;5289294;28;20379;-66
2022/10/17 12:22:01;;;;;;;12.60;9.75;;;;;;;16.63;100.00;101876.69;5301714;28;20043;-66
2022/10/17 12:24:42;;;;;;;12.07;10.30;;;;;;;16.61;100.00;101878.97;5302999;28;20024;-66
2022/10/17 12:27:33;;;;;;;11.20;10.10;;;;;;;16.62;100.00;101880.66;5300903;28;20421;-66
2022/10/17 12:30:25;;;;;;;14.40;10.93;;;;;;;16.67;100.00;101879.75;5302623;28;20024;-66
2022/10/17 12:32:56;;;;;;;10.80;9.80;;;;;;;16.66;100.00;101875.25;5295412;28;20048;-66
2022/10/17 12:35:30;;;;;;;11.18;10.25;;;;;;;16.71;100.00;101878.78;5283026;28;20063;-66
2022/10/17 12:38:18;;;;;;;11.95;10.30;;;;;;;16.70;100.00;101881.91;5288909;28;20471;-66
2022/10/17 12:40:55;;;;;;;12.57;11.10;;;;;;;16.72;100.00;101885.25;5300520;28;20036;-67
2022/10/17 12:43:29;;;;;;;11.55;10.45;;;;;;;16.74;100.00;101874.56;5296745;28;20368;-67
2022/10/17 12:46:03;;;;;;;12.23;10.90;;;;;;;16.76;100.00;101877.88;5284066;28;20020;-67
2022/10/17 12:48:34;;;;;;;13.45;12.10;;;;;;;16.84;100.00;101880.00;5293716;28;20471;-67
2022/10/17 12:51:08;;;;;;;12.83;11.13;;;;;;;16.82;100.00;101893.50;5306794;28;20078;-67
2022/10/17 12:53:46;;;;;;;12.05;10.85;;;;;;;16.84;100.00;101894.00;5306725;28;20347;-67
2022/10/17 12:56:19;;;;;;;12.30;11.05;;;;;;;16.82;100.00;101899.13;5299540;28;20067;-67
2022/10/17 12:58:51;;;;;;;11.98;10.82;;;;;;;16.84;100.00;101910.81;5285607;28;20162;-67
2022/10/17 13:01:31;;;;;;;12.77;11.35;;;;;;;16.83;100.00;101916.75;5285541;28;20049;-67
2022/10/17 13:04:05;;;;;;;17.05;11.80;;;;;;;16.83;100.00;101917.56;5285000;28;20024;-67
2022/10/17 13:06:43;;;;;;;13.93;12.48;;;;;;;16.88;100.00;101914.69;5285722;28;20059;-68
2022/10/17 13:09:27;;;;;;;16.42;14.68;;;;;;;16.87;100.00;101924.25;5294741;28;20478;-67
2022/10/17 13:12:01;;;;;;;15.68;13.77;;;;;;;16.85;100.00;101920.91;5306696;28;20463;-68
2022/10/17 13:14:33;;;;;;;14.90;11.77;;;;;;;16.85;100.00;101920.09;5298070;28;20029;-68
2022/10/17 13:17:06;;;;;;;13.77;12.32;;;;;;;16.83;100.00;101928.78;5284428;28;20387;-67
2022/10/17 13:19:44;;;;;;;16.17;12.82;;;;;;;16.83;100.00;101925.97;5285523;28;20027;-67
2022/10/17 13:22:24;;;;;;;13.27;11.63;;;;;;;16.84;100.00;101932.41;5285429;28;20063;-68
2022/10/17 13:25:09;;;;;;;15.68;12.50;;;;;;;16.81;100.00;101933.84;5285144;28;20031;-67
2022/10/17 13:27:43;;;;;;;14.32;12.90;;;;;;;16.80;100.00;101937.81;5306406;28;20447;-67
2022/10/17 13:30:34;;;;;;;17.65;13.45;;;;;;;16.84;100.00;101944.44;5305795;28;20062;-67
2022/10/17 13:33:30;;;;;;;14.82;13.40;;;;;;;16.83;100.00;101953.16;5306266;28;20015;-67
2022/10/17 13:36:05;;;;;;;15.35;12.80;;;;;;;16.82;100.00;101943.94;5306729;28;20433;-67
2022/10/17 13:38:37;;;;;;;14.27;12.88;;;;;;;16.82;100.00;101955.16;5305384;28;20535;-67
2022/10/17 13:41:21;;;;;;;14.85;13.32;;;;;;;16.81;100.00;101959.06;5306051;28;20028;-67
2022/10/17 13:43:56;;;;;;;13.38;12.18;;;;;;;16.79;100.00;101961.34;5294933;28;20103;-67
2022/10/17 13:46:29;;;;;;;20.25;13.20;;;;;;;16.80;100.00;101965.81;5305040;28;20085;-67
2022/10/17 13:49:28;;;;;;;16.05;12.18;;;;;;;16.81;100.00;101964.66;5297736;28;20447;-67
2022/10/17 13:52:02;;;;;;;14.80;12.32;;;;;;;16.78;100.00;101962.47;5283198;28;20036;-68
2022/10/17 13:54:42;;;;;;;13.80;12.38;;;;;;;16.81;100.00;101961.88;5284992;28;20024;-67
2022/10/17 13:57:21;;;;;;;16.13;11.50;;;;;;;16.79;100.00;101966.94;5284833;28;20036;-68
2022/10/17 14:00:04;;;;;;;12.10;10.85;;;;;;;16.82;100.00;101977.56;5289697;28;20430;-67
2022/10/17 14:02:35;;;;;;;13.15;11.77;;;;;;;16.83;100.00;101975.59;5306015;28;20522;-68
2022/10/17 14:05:07;;;;;;;12.23;11.05;;;;;;;16.83;100.00;101981.19;5304797;28;20111;-67
2022/10/17 14:07:43;;;;;;;11.32;10.13;;;;;;;16.88;100.00;101993.13;5304705;28;20491;-68
2022/10/17 14:10:22;;;;;;;12.23;10.23;;;;;;;16.92;100.00;101998.94;5305653;28;20054;-68
2022/10/17 14:12:54;;;;;;;13.63;10.18;;;;;;;16.90;100.00;101999.28;5304853;28;20024;-67
2022/10/17 14:15:28;;;;;;;12.55;10.02;;;;;;;16.91;100.00;102002.91;5305848;28;20032;-67
2022/10/17 14:18:03;;;;;;;12.15;11.02;;;;;;;16.92;100.00;102005.41;5289062;28;20039;-67
2022/10/17 14:20:36;;;;;;;11.70;10.52;;;;;;;16.91;100.00;102008.50;5283576;28;20021;-67
2022/10/17 14:23:27;;;;;;;11.68;10.18;;;;;;;16.97;100.00;102012.06;5284448;28;20051;-67
2022/10/17 14:26:13;;;;;;;11.85;10.63;;;;;;;16.96;100.00;102019.63;5284314;28;20475;-67
2022/10/17 14:28:48;;;;;;;15.80;10.70;;;;;;;16.97;100.00;102015.69;5283367;28;20020;-67
2022/10/17 14:31:31;;;;;;;48.50;37.75;;;;;;;16.97;100.00;102023.25;5284326;28;20090;-67
2022/10/17 14:34:04;;;;;;;42.25;32.80;;;;;;;16.95;100.00;102016.00;5290610;28;20471;-68
2022/10/17 14:36:43;;;;;;;17.67;11.02;;;;;;;16.97;100.00;102017.66;5298669;28;20025;-68
2022/10/17 14:39:20;;;;;;;11.73;10.68;;;;;;;17.00;100.00;102023.50;5297882;28;20023;-68
2022/10/17 14:41:53;;;;;;;12.05;10.70;;;;;;;16.99;100.00;102009.78;5304197;28;20031;-70
2022/10/17 14:44:28;;;;;;;11.35;10.25;;;;;;;17.01;100.00;102013.13;5304916;28;20103;-68
2022/10/17 14:47:02;;;;;;;11.82;10.82;;;;;;;16.97;100.00;102006.44;5299996;28;20025;-68
2022/10/17 14:49:40;;;;;;;12.02;10.05;;;;;;;17.00;100.00;102000.22;5287821;28;20471;-68
2022/10/17 14:52:31;;;;;;;19.80;17.98;;;;;;;17.01;100.00;102013.94;5287468;28;20055;-68
2022/10/17 14:55:22;;;;;;;12.23;10.93;;;;;;;17.01;100.00;102010.31;5283002;28;20028;-68
2022/10/17 14:57:54;;;;;;;12.18;10.82;;;;;;;16.99;100.00;102005.00;5283906;28;20460;-68
2022/10/17 15:00:28;;;;;;;11.95;10.75;;;;;;;17.01;100.00;102007.50;5300024;28;20048;-68
2022/10/17 15:02:59;;;;;;;11.70;10.63;;;;;;;17.00;100.00;102014.25;5303732;28;20548;-68
2022/10/17 15:05:31;;;;;;;11.50;10.50;;;;;;;16.99;100.00;102012.59;5293708;28;20020;-68
2022/10/17 15:08:02;;;;;;;13.63;12.32;;;;;;;16.97;100.00;102012.88;5303137;28;20028;-66
2022/10/17 15:10:41;;;;;;;50.00;45.03;;;;;;;17.00;100.00;102022.66;5290358;28;20012;-67
2022/10/17 15:13:13;;;;;;;16.58;15.00;;;;;;;17.00;100.00;102017.03;5283795;28;20070;-67
2022/10/17 15:15:50;;;;;;;13.77;12.38;;;;;;;17.01;100.00;102029.94;5282729;28;20039;-67
2022/10/17 15:18:21;;;;;;;14.23;12.82;;;;;;;17.02;100.00;102037.19;5289829;28;20032;-67
2022/10/17 15:20:52;;;;;;;13.70;11.65;;;;;;;17.05;100.00;102037.44;5292667;28;20032;-67
2022/10/17 15:23:23;;;;;;;12.85;11.65;;;;;;;17.03;100.00;102044.47;5303254;28;20034;-67
2022/10/17 15:25:55;;;;;;;13.98;11.82;;;;;;;17.02;100.00;102054.00;5289193;28;20082;-67
2022/10/17 15:28:26;;;;;;;14.35;12.73;;;;;;;17.07;100.00;102054.75;5282952;28;20035;-66
2022/10/17 15:31:00;;;;;;;14.65;13.45;;;;;;;17.09;100.00;102054.47;5301873;28;20036;-67
2022/10/17 15:33:31;;;;;;;14.82;13.40;;;;;;;17.06;100.00;102066.28;5303926;28;20471;-66
2022/10/17 15:36:03;;;;;;;14.50;12.95;;;;;;;17.05;100.00;102075.81;5297856;28;20111;-66
2022/10/17 15:38:34;;;;;;;14.65;13.27;;;;;;;17.05;100.00;102087.88;5303076;28;20039;-66
2022/10/17 15:41:08;;;;;;;14.45;12.88;;;;;;;17.05;100.00;102081.41;5301833;28;20449;-66
2022/10/17 15:43:39;;;;;;;13.60;12.43;;;;;;;17.04;100.00;102076.97;5292762;28;20124;-66
2022/10/17 15:46:13;;;;;;;14.35;13.05;;;;;;;17.01;100.00;102080.38;5297402;28;20095;-67
2022/10/17 15:48:44;;;;;;;14.70;13.15;;;;;;;17.00;100.00;102084.28;5290060;28;20077;-67
2022/10/17 15:51:16;;;;;;;14.23;12.98;;;;;;;17.01;100.00;102086.81;5302941;28;20383;-67
2022/10/17 15:53:47;;;;;;;15.65;14.05;;;;;;;16.98;100.00;102093.03;5303564;28;20063;-67
2022/10/17 15:56:27;;;;;;;14.40;12.60;;;;;;;16.98;100.00;102090.22;5303880;28;20042;-67
2022/10/17 15:59:01;;;;;;;14.48;12.98;;;;;;;16.99;100.00;102091.88;5295169;28;20074;-67
2022/10/17 16:01:33;;;;;;;15.18;13.35;;;;;;;16.96;100.00;102095.28;5287826;28;20379;-68
2022/10/17 16:04:05;;;;;;;12.60;11.27;;;;;;;16.93;100.00;102096.72;5302557;28;20023;-70
2022/10/17 16:06:36;;;;;;;13.95;11.68;;;;;;;16.95;100.00;102100.06;5302873;28;20036;-70
2022/10/17 16:09:08;;;;;;;12.60;11.35;;;;;;;16.92;100.00;102111.88;5303287;28;20012;-69
2022/10/17 16:11:41;;;;;;;14.75;12.18;;;;;;;16.87;100.00;102109.16;5303627;28;20028;-70
2022/10/17 16:14:14;;;;;;;13.90;11.77;;;;;;;16.89;100.00;102112.47;5302839;28;20077;-67
2022/10/17 16:16:46;;;;;;;14.00;11.85;;;;;;;16.86;100.00;102109.44;5290202;28;20049;-69
2022/10/17 16:19:17;;;;;;;13.13;11.88;;;;;;;16.84;100.00;102112.53;5282536;28;20048;-68
2022/10/17 16:21:48;;;;;;;13.05;11.85;;;;;;;16.82;100.00;102112.03;5284222;28;20378;-69
2022/10/17 16:24:20;;;;;;;12.95;11.05;;;;;;;16.82;100.00;102112.03;5286983;28;20017;-71
2022/10/17 16:26:51;;;;;;;12.27;11.00;;;;;;;16.81;100.00;102118.75;5286055;28;20020;-71
2022/10/17 16:29:22;;;;;;;12.43;11.20;;;;;;;16.80;100.00;102113.47;5286572;28;20032;-71
2022/10/17 16:31:54;;;;;;;12.68;11.45;;;;;;;16.79;100.00;102118.22;5297545;28;20095;-71
2022/10/17 16:34:25;;;;;;;12.45;11.25;;;;;;;16.77;100.00;102109.28;5287938;28;20032;-75
2022/10/17 16:36:56;;;;;;;12.70;11.38;;;;;;;16.77;100.00;102114.00;5292878;28;20104;-72
2022/10/17 16:39:28;;;;;;;14.23;12.60;;;;;;;16.72;100.00;102112.97;5307247;28;20035;-72
2022/10/17 16:41:59;;;;;;;13.30;11.80;;;;;;;16.72;100.00;102118.56;5307315;28;20073;-69
2022/10/17 16:44:33;;;;;;;12.88;11.65;;;;;;;16.71;100.00;102114.09;5305951;28;22429;-71
2022/10/17 16:47:04;;;;;;;15.80;11.88;;;;;;;16.70;100.00;102128.41;5295265;28;20025;-71
2022/10/17 16:49:36;;;;;;;13.82;12.50;;;;;;;16.69;100.00;102127.59;5303046;28;20039;-72
2022/10/17 16:52:08;;;;;;;12.73;11.43;;;;;;;16.66;100.00;102122.56;5307110;28;20031;-68
2022/10/17 16:54:39;;;;;;;12.82;11.38;;;;;;;16.67;100.00;102129.00;5303200;28;20482;-70
2022/10/17 16:57:10;;;;;;;14.13;11.88;;;;;;;16.64;100.00;102126.78;5307048;28;20479;-70
2022/10/17 16:59:42;;;;;;;15.48;12.65;;;;;;;16.65;100.00;102123.69;5307064;28;20501;-68
2022/10/17 17:02:13;;;;;;;16.33;12.63;;;;;;;16.61;100.00;102127.38;5304796;28;20048;-69
2022/10/17 17:04:47;;;;;;;16.92;12.60;;;;;;;16.64;100.00;102135.19;5293653;28;20093;-69
2022/10/17 17:07:19;;;;;;;13.80;12.25;;;;;;;16.61;100.00;102139.41;5290775;28;20058;-70
2022/10/17 17:09:52;;;;;;;14.38;12.70;;;;;;;16.60;100.00;102142.53;5298206;28;20023;-70
2022/10/17 17:12:23;;;;;;;13.85;12.02;;;;;;;16.59;100.00;102140.84;5302289;28;20352;-70
2022/10/17 17:14:55;;;;;;;13.05;11.60;;;;;;;16.57;100.00;102140.34;5293356;28;20020;-72
2022/10/17 17:17:26;;;;;;;14.70;12.95;;;;;;;16.55;100.00;102146.22;5299362;28;20063;-73
2022/10/17 17:19:58;;;;;;;15.23;13.35;;;;;;;16.50;100.00;102135.91;5285910;28;20028;-71
2022/10/17 17:22:29;;;;;;;20.35;16.90;;;;;;;16.49;100.00;102141.84;5301893;28;20031;-70
2022/10/17 17:25:00;;;;;;;15.55;14.05;;;;;;;16.49;100.00;102145.47;5296259;28;20020;-70
2022/10/17 17:27:52;;;;;;;14.50;13.00;;;;;;;16.49;100.00;102153.88;5303348;28;20020;-71
2022/10/17 17:30:23;;;;;;;14.55;13.02;;;;;;;16.47;100.00;102156.13;5300817;28;20032;-69
2022/10/17 17:32:54;;;;;;;16.35;13.38;;;;;;;16.47;100.00;102166.50;5298466;28;20024;-69
